sensor_id;sensor_type;location;lat;lon;timestamp;pressure;altitude;pressure_sealevel;temperature;humidity
55070;BME280;40967;52.070;8.596;2023-04-30T00:00:12;101199.88;;;7.57;82.55
55070;BME280;40967;52.070;8.596;2023-04-30T00:02:38;101207.38;;;7.55;82.79
55070;BME280;40967;52.070;8.596;2023-04-30T00:05:03;101203.75;;;7.50;83.01
55070;BME280;40967;52.070;8.596;2023-04-30T00:07:29;101217.47;;;7.48;82.72
55070;BME280;40967;52.070;8.596;2023-04-30T00:09:54;101214.19;;;7.46;83.40
55070;BME280;40967;52.070;8.596;2023-04-30T00:12:20;101211.72;;;7.45;83.60
55070;BME280;40967;52.070;8.596;2023-04-30T00:14:45;101220.66;;;7.45;84.17
55070;BME280;40967;52.070;8.596;2023-04-30T00:17:11;101223.00;;;7.42;84.72
55070;BME280;40967;52.070;8.596;2023-04-30T00:19:36;101220.84;;;7.44;84.54
55070;BME280;40967;52.070;8.596;2023-04-30T00:22:01;101220.50;;;7.40;84.50
55070;BME280;40967;52.070;8.596;2023-04-30T00:24:28;101226.97;;;7.39;85.47
55070;BME280;40967;52.070;8.596;2023-04-30T00:26:53;101223.66;;;7.37;85.71
55070;BME280;40967;52.070;8.596;2023-04-30T00:29:18;101224.97;;;7.35;85.91
55070;BME280;40967;52.070;8.596;2023-04-30T00:31:44;101222.28;;;7.35;85.97
55070;BME280;40967;52.070;8.596;2023-04-30T00:34:10;101226.59;;;7.36;85.94
55070;BME280;40967;52.070;8.596;2023-04-30T00:36:36;101230.38;;;7.35;85.41
55070;BME280;40967;52.070;8.596;2023-04-30T00:39:01;101235.16;;;7.33;86.02
55070;BME280;40967;52.070;8.596;2023-04-30T00:41:28;101231.88;;;7.31;85.44
55070;BME280;40967;52.070;8.596;2023-04-30T00:43:55;101227.97;;;7.27;85.63
55070;BME280;40967;52.070;8.596;2023-04-30T00:46:20;101233.59;;;7.25;85.30
55070;BME280;40967;52.070;8.596;2023-04-30T00:48:46;101239.47;;;7.22;85.44
55070;BME280;40967;52.070;8.596;2023-04-30T00:51:12;101246.50;;;7.23;85.40
55070;BME280;40967;52.070;8.596;2023-04-30T00:53:39;101248.41;;;7.23;85.30
55070;BME280;40967;52.070;8.596;2023-04-30T00:56:05;101244.03;;;7.22;84.99
55070;BME280;40967;52.070;8.596;2023-04-30T00:58:33;101246.13;;;7.20;84.21
55070;BME280;40967;52.070;8.596;2023-04-30T01:01:00;101245.53;;;7.18;85.31
55070;BME280;40967;52.070;8.596;2023-04-30T01:03:28;101250.00;;;7.12;84.80
55070;BME280;40967;52.070;8.596;2023-04-30T01:05:54;101249.63;;;7.09;84.62
55070;BME280;40967;52.070;8.596;2023-04-30T01:08:19;101247.84;;;7.03;84.95
55070;BME280;40967;52.070;8.596;2023-04-30T01:10:52;101258.41;;;7.04;84.65
55070;BME280;40967;52.070;8.596;2023-04-30T01:13:36;101257.81;;;7.02;84.54
55070;BME280;40967;52.070;8.596;2023-04-30T01:16:14;101255.81;;;6.98;84.62
55070;BME280;40967;52.070;8.596;2023-04-30T01:18:48;101262.47;;;6.95;84.41
55070;BME280;40967;52.070;8.596;2023-04-30T01:21:17;101263.16;;;6.90;84.72
55070;BME280;40967;52.070;8.596;2023-04-30T01:29:19;101258.69;;;6.66;85.83
55070;BME280;40967;52.070;8.596;2023-04-30T01:31:47;101262.88;;;6.62;86.67
55070;BME280;40967;52.070;8.596;2023-04-30T01:34:12;101263.84;;;6.50;86.91
55070;BME280;40967;52.070;8.596;2023-04-30T01:42:16;101253.38;;;6.42;88.00
55070;BME280;40967;52.070;8.596;2023-04-30T01:50:45;101254.81;;;6.44;87.11
55070;BME280;40967;52.070;8.596;2023-04-30T01:53:40;101259.38;;;6.44;87.06
55070;BME280;40967;52.070;8.596;2023-04-30T01:56:19;101257.94;;;6.41;86.59
55070;BME280;40967;52.070;8.596;2023-04-30T01:58:47;101264.00;;;6.37;87.18
55070;BME280;40967;52.070;8.596;2023-04-30T02:01:30;101265.28;;;6.34;86.71
55070;BME280;40967;52.070;8.596;2023-04-30T02:03:56;101266.56;;;6.32;87.62
55070;BME280;40967;52.070;8.596;2023-04-30T02:06:23;101271.72;;;6.33;87.86
55070;BME280;40967;52.070;8.596;2023-04-30T02:08:55;101271.50;;;6.35;87.31
55070;BME280;40967;52.070;8.596;2023-04-30T02:11:23;101273.72;;;6.38;87.18
55070;BME280;40967;52.070;8.596;2023-04-30T02:13:49;101277.03;;;6.40;87.79
55070;BME280;40967;52.070;8.596;2023-04-30T02:16:15;101279.50;;;6.41;87.05
55070;BME280;40967;52.070;8.596;2023-04-30T02:18:41;101279.72;;;6.40;87.28
55070;BME280;40967;52.070;8.596;2023-04-30T02:21:06;101280.34;;;6.42;86.57
55070;BME280;40967;52.070;8.596;2023-04-30T02:23:32;101277.25;;;6.38;86.82
55070;BME280;40967;52.070;8.596;2023-04-30T02:25:57;101291.94;;;6.42;86.81
55070;BME280;40967;52.070;8.596;2023-04-30T02:28:22;101291.13;;;6.42;86.14
55070;BME280;40967;52.070;8.596;2023-04-30T02:30:48;101301.06;;;6.41;86.06
55070;BME280;40967;52.070;8.596;2023-04-30T02:33:13;101280.78;;;6.39;86.25
55070;BME280;40967;52.070;8.596;2023-04-30T02:35:40;101284.13;;;6.34;86.23
55070;BME280;40967;52.070;8.596;2023-04-30T02:38:05;101285.66;;;6.30;86.07
55070;BME280;40967;52.070;8.596;2023-04-30T02:40:31;101286.69;;;6.29;86.31
55070;BME280;40967;52.070;8.596;2023-04-30T02:42:56;101288.75;;;6.27;86.47
55070;BME280;40967;52.070;8.596;2023-04-30T02:45:21;101288.19;;;6.25;86.32
55070;BME280;40967;52.070;8.596;2023-04-30T02:47:47;101288.59;;;6.22;86.33
55070;BME280;40967;52.070;8.596;2023-04-30T02:50:13;101291.75;;;6.19;86.42
55070;BME280;40967;52.070;8.596;2023-04-30T02:52:38;101282.69;;;6.14;86.43
55070;BME280;40967;52.070;8.596;2023-04-30T02:55:05;101282.31;;;6.10;86.23
55070;BME280;40967;52.070;8.596;2023-04-30T02:57:31;101284.00;;;6.05;86.80
55070;BME280;40967;52.070;8.596;2023-04-30T02:59:56;101277.81;;;6.04;86.37
55070;BME280;40967;52.070;8.596;2023-04-30T03:02:22;101285.28;;;6.02;87.11
55070;BME280;40967;52.070;8.596;2023-04-30T03:04:48;101290.69;;;6.02;86.53
55070;BME280;40967;52.070;8.596;2023-04-30T03:07:14;101296.50;;;5.99;86.90
55070;BME280;40967;52.070;8.596;2023-04-30T03:09:39;101298.81;;;5.96;86.83
55070;BME280;40967;52.070;8.596;2023-04-30T03:12:05;101296.13;;;5.96;87.24
55070;BME280;40967;52.070;8.596;2023-04-30T03:14:30;101290.78;;;5.89;87.29
55070;BME280;40967;52.070;8.596;2023-04-30T03:16:56;101294.97;;;5.85;87.29
55070;BME280;40967;52.070;8.596;2023-04-30T03:19:21;101284.22;;;5.78;87.41
55070;BME280;40967;52.070;8.596;2023-04-30T03:21:50;101301.88;;;5.74;87.61
55070;BME280;40967;52.070;8.596;2023-04-30T03:24:16;101302.09;;;5.73;87.87
55070;BME280;40967;52.070;8.596;2023-04-30T03:26:41;101301.91;;;5.68;87.39
55070;BME280;40967;52.070;8.596;2023-04-30T03:29:07;101304.41;;;5.63;87.54
55070;BME280;40967;52.070;8.596;2023-04-30T03:31:32;101295.16;;;5.59;87.80
55070;BME280;40967;52.070;8.596;2023-04-30T03:33:58;101300.38;;;5.54;87.83
55070;BME280;40967;52.070;8.596;2023-04-30T03:36:23;101297.66;;;5.54;88.23
55070;BME280;40967;52.070;8.596;2023-04-30T03:38:49;101300.38;;;5.54;87.87
55070;BME280;40967;52.070;8.596;2023-04-30T03:41:14;101302.22;;;5.53;87.58
55070;BME280;40967;52.070;8.596;2023-04-30T03:43:39;101300.78;;;5.51;87.42
55070;BME280;40967;52.070;8.596;2023-04-30T03:46:05;101308.03;;;5.50;87.60
55070;BME280;40967;52.070;8.596;2023-04-30T03:48:30;101301.22;;;5.48;87.24
55070;BME280;40967;52.070;8.596;2023-04-30T03:50:56;101301.44;;;5.46;86.73
55070;BME280;40967;52.070;8.596;2023-04-30T03:53:21;101308.91;;;5.44;86.66
55070;BME280;40967;52.070;8.596;2023-04-30T03:55:48;101303.97;;;5.41;86.72
55070;BME280;40967;52.070;8.596;2023-04-30T03:58:14;101301.50;;;5.40;86.81
55070;BME280;40967;52.070;8.596;2023-04-30T04:00:40;101298.41;;;5.36;86.36
55070;BME280;40967;52.070;8.596;2023-04-30T04:03:05;101295.50;;;5.38;86.61
55070;BME280;40967;52.070;8.596;2023-04-30T04:05:31;101296.34;;;5.32;86.14
55070;BME280;40967;52.070;8.596;2023-04-30T04:07:56;101297.19;;;5.32;86.35
55070;BME280;40967;52.070;8.596;2023-04-30T04:10:22;101301.16;;;5.30;86.13
55070;BME280;40967;52.070;8.596;2023-04-30T04:12:47;101302.38;;;5.27;86.33
55070;BME280;40967;52.070;8.596;2023-04-30T04:15:13;101290.41;;;5.23;86.00
55070;BME280;40967;52.070;8.596;2023-04-30T04:17:38;101302.00;;;5.24;85.91
55070;BME280;40967;52.070;8.596;2023-04-30T04:20:04;101291.06;;;5.19;86.05
55070;BME280;40967;52.070;8.596;2023-04-30T04:22:30;101303.22;;;5.21;86.06
55070;BME280;40967;52.070;8.596;2023-04-30T04:24:56;101291.91;;;5.13;85.56
55070;BME280;40967;52.070;8.596;2023-04-30T04:27:21;101308.22;;;5.18;85.56
55070;BME280;40967;52.070;8.596;2023-04-30T04:29:47;101300.59;;;5.15;85.86
55070;BME280;40967;52.070;8.596;2023-04-30T04:32:13;101304.75;;;5.11;85.86
55070;BME280;40967;52.070;8.596;2023-04-30T04:34:38;101307.66;;;5.09;85.61
55070;BME280;40967;52.070;8.596;2023-04-30T04:37:04;101300.41;;;5.10;86.14
55070;BME280;40967;52.070;8.596;2023-04-30T04:39:33;101309.94;;;5.06;85.69
55070;BME280;40967;52.070;8.596;2023-04-30T04:42:00;101312.84;;;5.04;86.07
55070;BME280;40967;52.070;8.596;2023-04-30T04:44:26;101318.22;;;5.04;86.49
55070;BME280;40967;52.070;8.596;2023-04-30T04:46:52;101313.06;;;5.03;85.96
55070;BME280;40967;52.070;8.596;2023-04-30T04:49:18;101302.56;;;4.95;86.06
55070;BME280;40967;52.070;8.596;2023-04-30T04:51:43;101315.75;;;5.03;86.25
55070;BME280;40967;52.070;8.596;2023-04-30T04:54:09;101303.34;;;5.02;86.47
55070;BME280;40967;52.070;8.596;2023-04-30T04:56:34;101304.16;;;5.02;86.33
55070;BME280;40967;52.070;8.596;2023-04-30T04:59:00;101309.34;;;5.04;87.01
55070;BME280;40967;52.070;8.596;2023-04-30T05:01:25;101308.47;;;5.10;87.86
55070;BME280;40967;52.070;8.596;2023-04-30T05:03:51;101314.03;;;5.15;87.97
55070;BME280;40967;52.070;8.596;2023-04-30T05:06:18;101311.75;;;5.18;88.78
55070;BME280;40967;52.070;8.596;2023-04-30T05:08:44;101312.75;;;5.24;88.70
55070;BME280;40967;52.070;8.596;2023-04-30T05:11:09;101316.88;;;5.26;88.32
55070;BME280;40967;52.070;8.596;2023-04-30T05:13:35;101317.28;;;5.23;88.25
55070;BME280;40967;52.070;8.596;2023-04-30T05:16:00;101323.06;;;5.27;87.91
55070;BME280;40967;52.070;8.596;2023-04-30T05:18:25;101321.63;;;5.31;88.46
55070;BME280;40967;52.070;8.596;2023-04-30T05:20:51;101318.91;;;5.31;88.88
55070;BME280;40967;52.070;8.596;2023-04-30T05:23:16;101318.03;;;5.37;89.20
55070;BME280;40967;52.070;8.596;2023-04-30T05:25:42;101325.50;;;5.41;89.52
55070;BME280;40967;52.070;8.596;2023-04-30T05:28:07;101327.50;;;5.46;90.01
55070;BME280;40967;52.070;8.596;2023-04-30T05:30:33;101334.13;;;5.50;90.99
55070;BME280;40967;52.070;8.596;2023-04-30T05:32:58;101337.22;;;5.53;91.52
55070;BME280;40967;52.070;8.596;2023-04-30T05:35:23;101329.97;;;5.54;92.59
55070;BME280;40967;52.070;8.596;2023-04-30T05:37:49;101333.06;;;5.57;93.08
55070;BME280;40967;52.070;8.596;2023-04-30T05:40:15;101340.03;;;5.65;93.66
55070;BME280;40967;52.070;8.596;2023-04-30T05:42:41;101342.88;;;5.70;93.92
55070;BME280;40967;52.070;8.596;2023-04-30T05:45:11;101333.13;;;5.75;94.39
55070;BME280;40967;52.070;8.596;2023-04-30T05:47:39;101338.44;;;5.82;94.75
55070;BME280;40967;52.070;8.596;2023-04-30T05:50:05;101343.44;;;5.85;94.62
55070;BME280;40967;52.070;8.596;2023-04-30T05:52:31;101342.41;;;5.86;95.34
55070;BME280;40967;52.070;8.596;2023-04-30T05:54:57;101335.94;;;5.94;94.93
55070;BME280;40967;52.070;8.596;2023-04-30T05:57:22;101335.25;;;5.98;95.53
55070;BME280;40967;52.070;8.596;2023-04-30T05:59:48;101345.56;;;6.08;95.44
55070;BME280;40967;52.070;8.596;2023-04-30T06:02:13;101347.13;;;6.15;95.54
55070;BME280;40967;52.070;8.596;2023-04-30T06:04:39;101341.31;;;6.18;95.29
55070;BME280;40967;52.070;8.596;2023-04-30T06:07:04;101350.16;;;6.25;95.78
55070;BME280;40967;52.070;8.596;2023-04-30T06:09:30;101343.03;;;6.31;95.41
55070;BME280;40967;52.070;8.596;2023-04-30T06:11:55;101345.69;;;6.37;95.59
55070;BME280;40967;52.070;8.596;2023-04-30T06:14:21;101340.47;;;6.42;95.31
55070;BME280;40967;52.070;8.596;2023-04-30T06:16:47;101343.69;;;6.51;95.58
55070;BME280;40967;52.070;8.596;2023-04-30T06:19:13;101349.63;;;6.59;95.49
55070;BME280;40967;52.070;8.596;2023-04-30T06:21:39;101350.75;;;6.70;95.29
55070;BME280;40967;52.070;8.596;2023-04-30T06:24:04;101344.63;;;6.81;95.62
55070;BME280;40967;52.070;8.596;2023-04-30T06:26:33;101345.28;;;6.95;95.69
55070;BME280;40967;52.070;8.596;2023-04-30T06:28:59;101350.06;;;7.11;95.14
55070;BME280;40967;52.070;8.596;2023-04-30T06:31:25;101342.88;;;7.23;94.49
55070;BME280;40967;52.070;8.596;2023-04-30T06:33:50;101350.91;;;7.41;94.32
55070;BME280;40967;52.070;8.596;2023-04-30T06:36:16;101350.88;;;7.59;93.72
55070;BME280;40967;52.070;8.596;2023-04-30T06:38:43;101355.97;;;7.78;93.36
55070;BME280;40967;52.070;8.596;2023-04-30T06:41:08;101358.97;;;8.00;91.88
55070;BME280;40967;52.070;8.596;2023-04-30T06:43:34;101361.00;;;8.16;90.95
55070;BME280;40967;52.070;8.596;2023-04-30T06:46:02;101364.22;;;8.36;89.86
55070;BME280;40967;52.070;8.596;2023-04-30T06:48:31;101365.03;;;8.48;88.18
55070;BME280;40967;52.070;8.596;2023-04-30T06:51:02;101367.16;;;8.69;87.23
55070;BME280;40967;52.070;8.596;2023-04-30T06:53:28;101368.66;;;8.88;86.26
55070;BME280;40967;52.070;8.596;2023-04-30T06:55:53;101371.91;;;9.13;85.40
55070;BME280;40967;52.070;8.596;2023-04-30T06:58:19;101363.69;;;9.37;84.09
55070;BME280;40967;52.070;8.596;2023-04-30T07:00:45;101362.91;;;9.64;83.03
55070;BME280;40967;52.070;8.596;2023-04-30T07:03:10;101370.03;;;9.98;82.67
55070;BME280;40967;52.070;8.596;2023-04-30T07:05:35;101366.03;;;10.34;81.08
55070;BME280;40967;52.070;8.596;2023-04-30T07:08:02;101365.41;;;10.65;79.61
55070;BME280;40967;52.070;8.596;2023-04-30T07:10:28;101363.63;;;10.92;78.11
55070;BME280;40967;52.070;8.596;2023-04-30T07:12:53;101368.59;;;11.17;76.01
55070;BME280;40967;52.070;8.596;2023-04-30T07:15:19;101358.06;;;11.47;75.52
55070;BME280;40967;52.070;8.596;2023-04-30T07:17:45;101366.56;;;11.77;73.46
55070;BME280;40967;52.070;8.596;2023-04-30T07:20:11;101367.38;;;12.04;72.64
55070;BME280;40967;52.070;8.596;2023-04-30T07:22:38;101368.34;;;12.25;71.17
55070;BME280;40967;52.070;8.596;2023-04-30T07:25:04;101367.38;;;12.36;70.47
55070;BME280;40967;52.070;8.596;2023-04-30T07:27:30;101367.56;;;12.61;70.06
55070;BME280;40967;52.070;8.596;2023-04-30T07:29:55;101373.41;;;12.85;68.67
55070;BME280;40967;52.070;8.596;2023-04-30T07:32:21;101357.66;;;12.92;66.83
55070;BME280;40967;52.070;8.596;2023-04-30T07:34:46;101352.22;;;12.92;65.83
55070;BME280;40967;52.070;8.596;2023-04-30T07:37:12;101357.50;;;13.08;66.18
55070;BME280;40967;52.070;8.596;2023-04-30T07:39:38;101353.75;;;13.24;65.22
55070;BME280;40967;52.070;8.596;2023-04-30T07:42:04;101354.88;;;13.38;64.05
55070;BME280;40967;52.070;8.596;2023-04-30T07:44:30;101357.94;;;13.52;63.65
55070;BME280;40967;52.070;8.596;2023-04-30T07:46:55;101365.34;;;13.77;63.02
55070;BME280;40967;52.070;8.596;2023-04-30T07:49:20;101361.56;;;14.08;62.58
55070;BME280;40967;52.070;8.596;2023-04-30T07:51:46;101351.25;;;14.30;62.35
55070;BME280;40967;52.070;8.596;2023-04-30T07:54:12;101357.47;;;14.65;61.71
55070;BME280;40967;52.070;8.596;2023-04-30T07:56:37;101361.72;;;15.07;60.71
55070;BME280;40967;52.070;8.596;2023-04-30T07:59:03;101355.88;;;15.38;60.27
55070;BME280;40967;52.070;8.596;2023-04-30T08:01:29;101351.31;;;15.72;59.29
55070;BME280;40967;52.070;8.596;2023-04-30T08:03:55;101364.81;;;16.03;57.95
55070;BME280;40967;52.070;8.596;2023-04-30T08:06:24;101367.03;;;16.34;57.10
55070;BME280;40967;52.070;8.596;2023-04-30T08:08:49;101360.13;;;16.42;55.36
55070;BME280;40967;52.070;8.596;2023-04-30T08:11:15;101362.53;;;16.48;54.82
55070;BME280;40967;52.070;8.596;2023-04-30T08:13:41;101363.31;;;16.54;53.61
55070;BME280;40967;52.070;8.596;2023-04-30T08:16:07;101365.13;;;16.63;53.61
55070;BME280;40967;52.070;8.596;2023-04-30T08:18:33;101367.44;;;16.80;53.12
55070;BME280;40967;52.070;8.596;2023-04-30T08:20:59;101367.22;;;17.00;53.13
55070;BME280;40967;52.070;8.596;2023-04-30T08:23:25;101371.34;;;17.21;51.39
55070;BME280;40967;52.070;8.596;2023-04-30T08:25:50;101371.34;;;17.21;50.67
55070;BME280;40967;52.070;8.596;2023-04-30T08:28:16;101363.88;;;17.03;51.43
55070;BME280;40967;52.070;8.596;2023-04-30T08:30:42;101356.19;;;17.05;51.21
55070;BME280;40967;52.070;8.596;2023-04-30T08:33:07;101354.13;;;17.16;50.35
55070;BME280;40967;52.070;8.596;2023-04-30T08:35:33;101357.50;;;17.31;49.71
55070;BME280;40967;52.070;8.596;2023-04-30T08:37:58;101352.94;;;17.45;48.87
55070;BME280;40967;52.070;8.596;2023-04-30T08:40:25;101346.91;;;17.67;48.85
55070;BME280;40967;52.070;8.596;2023-04-30T08:42:59;101340.75;;;17.75;49.25
55070;BME280;40967;52.070;8.596;2023-04-30T08:45:30;101349.94;;;18.02;48.68
55070;BME280;40967;52.070;8.596;2023-04-30T08:47:58;101348.56;;;18.19;47.67
55070;BME280;40967;52.070;8.596;2023-04-30T08:50:24;101339.03;;;18.30;47.16
55070;BME280;40967;52.070;8.596;2023-04-30T08:52:50;101341.19;;;18.33;46.87
55070;BME280;40967;52.070;8.596;2023-04-30T08:55:15;101345.78;;;18.37;46.52
55070;BME280;40967;52.070;8.596;2023-04-30T08:57:41;101341.38;;;18.55;46.78
55070;BME280;40967;52.070;8.596;2023-04-30T09:00:06;101344.25;;;18.77;46.46
55070;BME280;40967;52.070;8.596;2023-04-30T09:02:33;101338.06;;;18.98;45.65
55070;BME280;40967;52.070;8.596;2023-04-30T09:04:58;101338.25;;;19.15;45.36
55070;BME280;40967;52.070;8.596;2023-04-30T09:07:25;101339.50;;;19.37;44.41
55070;BME280;40967;52.070;8.596;2023-04-30T09:09:53;101333.78;;;19.33;44.04
55070;BME280;40967;52.070;8.596;2023-04-30T09:12:19;101342.25;;;19.37;43.44
55070;BME280;40967;52.070;8.596;2023-04-30T09:15:04;101341.31;;;19.41;43.31
55070;BME280;40967;52.070;8.596;2023-04-30T09:17:31;101341.19;;;19.46;43.45
55070;BME280;40967;52.070;8.596;2023-04-30T09:22:32;101330.84;;;19.65;42.84
55070;BME280;40967;52.070;8.596;2023-04-30T09:24:57;101335.41;;;19.48;43.85
55070;BME280;40967;52.070;8.596;2023-04-30T09:27:23;101338.47;;;19.82;43.86
55070;BME280;40967;52.070;8.596;2023-04-30T09:29:48;101339.19;;;20.31;42.87
55070;BME280;40967;52.070;8.596;2023-04-30T09:32:14;101332.44;;;20.68;42.00
55070;BME280;40967;52.070;8.596;2023-04-30T09:34:40;101336.72;;;20.83;41.30
55070;BME280;40967;52.070;8.596;2023-04-30T09:37:07;101332.59;;;21.02;40.83
55070;BME280;40967;52.070;8.596;2023-04-30T09:39:32;101335.28;;;21.24;40.13
55070;BME280;40967;52.070;8.596;2023-04-30T09:42:10;101339.19;;;21.32;39.91
55070;BME280;40967;52.070;8.596;2023-04-30T09:44:37;101339.34;;;21.35;39.50
55070;BME280;40967;52.070;8.596;2023-04-30T09:47:03;101336.13;;;21.42;39.30
55070;BME280;40967;52.070;8.596;2023-04-30T09:49:29;101335.16;;;21.55;39.10
55070;BME280;40967;52.070;8.596;2023-04-30T09:51:59;101337.94;;;21.64;38.61
55070;BME280;40967;52.070;8.596;2023-04-30T09:54:30;101338.75;;;21.73;38.45
55070;BME280;40967;52.070;8.596;2023-04-30T09:57:00;101327.25;;;21.88;38.01
55070;BME280;40967;52.070;8.596;2023-04-30T09:59:31;101321.41;;;22.06;37.42
55070;BME280;40967;52.070;8.596;2023-04-30T10:02:01;101320.56;;;22.23;36.86
55070;BME280;40967;52.070;8.596;2023-04-30T10:04:49;101319.09;;;22.08;36.64
55070;BME280;40967;52.070;8.596;2023-04-30T10:07:19;101325.63;;;21.70;37.93
55070;BME280;40967;52.070;8.596;2023-04-30T10:10:06;101313.13;;;21.81;37.51
55070;BME280;40967;52.070;8.596;2023-04-30T10:12:50;101309.38;;;22.02;37.27
55070;BME280;40967;52.070;8.596;2023-04-30T10:15:19;101310.16;;;21.69;36.48
55070;BME280;40967;52.070;8.596;2023-04-30T10:17:49;101306.28;;;21.70;36.55
55070;BME280;40967;52.070;8.596;2023-04-30T10:20:20;101302.06;;;21.89;36.11
55070;BME280;40967;52.070;8.596;2023-04-30T10:22:47;101303.38;;;22.00;35.51
55070;BME280;40967;52.070;8.596;2023-04-30T10:25:14;101302.38;;;22.13;35.20
55070;BME280;40967;52.070;8.596;2023-04-30T10:27:40;101303.97;;;22.31;35.24
55070;BME280;40967;52.070;8.596;2023-04-30T10:30:09;101297.75;;;22.51;34.95
55070;BME280;40967;52.070;8.596;2023-04-30T10:32:45;101292.16;;;22.69;34.60
55070;BME280;40967;52.070;8.596;2023-04-30T10:35:18;101296.94;;;22.89;34.82
55070;BME280;40967;52.070;8.596;2023-04-30T10:37:52;101292.19;;;22.98;34.47
55070;BME280;40967;52.070;8.596;2023-04-30T10:40:19;101297.53;;;23.03;34.34
55070;BME280;40967;52.070;8.596;2023-04-30T10:42:48;101287.81;;;22.97;34.10
55070;BME280;40967;52.070;8.596;2023-04-30T10:45:36;101290.47;;;22.85;34.14
55070;BME280;40967;52.070;8.596;2023-04-30T10:48:02;101284.41;;;22.91;34.88
55070;BME280;40967;52.070;8.596;2023-04-30T10:50:29;101283.31;;;22.84;34.61
55070;BME280;40967;52.070;8.596;2023-04-30T10:53:04;101279.69;;;22.92;34.48
55070;BME280;40967;52.070;8.596;2023-04-30T10:55:30;101281.59;;;23.00;34.00
55070;BME280;40967;52.070;8.596;2023-04-30T10:57:59;101278.63;;;23.05;33.66
55070;BME280;40967;52.070;8.596;2023-04-30T11:00:29;101274.50;;;23.19;33.44
55070;BME280;40967;52.070;8.596;2023-04-30T11:03:01;101265.47;;;23.31;33.45
55070;BME280;40967;52.070;8.596;2023-04-30T11:05:35;101269.66;;;23.37;33.54
55070;BME280;40967;52.070;8.596;2023-04-30T11:08:02;101272.56;;;23.40;33.17
55070;BME280;40967;52.070;8.596;2023-04-30T11:10:31;101259.25;;;23.34;33.45
55070;BME280;40967;52.070;8.596;2023-04-30T11:13:02;101251.00;;;23.46;32.91
55070;BME280;40967;52.070;8.596;2023-04-30T11:15:42;101260.81;;;23.64;32.67
55070;BME280;40967;52.070;8.596;2023-04-30T11:18:09;101251.34;;;23.65;31.92
55070;BME280;40967;52.070;8.596;2023-04-30T11:20:39;101257.78;;;23.57;31.88
55070;BME280;40967;52.070;8.596;2023-04-30T11:25:46;101254.66;;;23.58;32.21
55070;BME280;40967;52.070;8.596;2023-04-30T11:28:16;101250.22;;;23.66;32.38
55070;BME280;40967;52.070;8.596;2023-04-30T11:31:09;101245.06;;;23.77;31.95
55070;BME280;40967;52.070;8.596;2023-04-30T11:33:34;101240.91;;;23.83;31.99
55070;BME280;40967;52.070;8.596;2023-04-30T11:36:01;101244.38;;;23.80;32.16
55070;BME280;40967;52.070;8.596;2023-04-30T11:38:36;101247.75;;;23.85;31.93
55070;BME280;40967;52.070;8.596;2023-04-30T11:41:02;101243.97;;;23.69;32.22
55070;BME280;40967;52.070;8.596;2023-04-30T11:43:33;101241.03;;;23.53;33.04
55070;BME280;40967;52.070;8.596;2023-04-30T11:48:33;101242.88;;;23.82;32.50
55070;BME280;40967;52.070;8.596;2023-04-30T11:51:05;101240.69;;;23.88;31.85
55070;BME280;40967;52.070;8.596;2023-04-30T11:53:38;101235.03;;;23.84;31.69
55070;BME280;40967;52.070;8.596;2023-04-30T11:56:03;101235.72;;;23.81;31.53
55070;BME280;40967;52.070;8.596;2023-04-30T11:58:33;101232.25;;;23.84;31.23
55070;BME280;40967;52.070;8.596;2023-04-30T12:00:59;101228.13;;;23.90;31.72
55070;BME280;40967;52.070;8.596;2023-04-30T12:03:25;101221.44;;;23.91;31.26
55070;BME280;40967;52.070;8.596;2023-04-30T12:05:50;101222.28;;;23.71;31.12
55070;BME280;40967;52.070;8.596;2023-04-30T12:08:18;101215.06;;;23.37;31.67
55070;BME280;40967;52.070;8.596;2023-04-30T12:10:43;101212.78;;;23.39;32.22
55070;BME280;40967;52.070;8.596;2023-04-30T12:13:12;101214.72;;;23.59;32.16
55070;BME280;40967;52.070;8.596;2023-04-30T12:15:38;101216.53;;;23.76;31.74
55070;BME280;40967;52.070;8.596;2023-04-30T12:18:10;101214.63;;;23.89;31.17
55070;BME280;40967;52.070;8.596;2023-04-30T12:20:38;101214.53;;;23.65;31.58
55070;BME280;40967;52.070;8.596;2023-04-30T12:23:04;101220.72;;;23.20;32.17
55070;BME280;40967;52.070;8.596;2023-04-30T12:25:30;101215.81;;;23.26;31.76
55070;BME280;40967;52.070;8.596;2023-04-30T12:27:58;101211.50;;;23.37;31.25
55070;BME280;40967;52.070;8.596;2023-04-30T12:30:25;101194.00;;;23.45;31.38
55070;BME280;40967;52.070;8.596;2023-04-30T12:32:52;101195.13;;;23.44;31.15
55070;BME280;40967;52.070;8.596;2023-04-30T12:35:19;101201.28;;;23.49;31.17
55070;BME280;40967;52.070;8.596;2023-04-30T12:37:50;101202.78;;;23.47;31.50
55070;BME280;40967;52.070;8.596;2023-04-30T12:40:17;101195.34;;;23.39;31.59
55070;BME280;40967;52.070;8.596;2023-04-30T12:42:44;101199.59;;;23.16;32.22
55070;BME280;40967;52.070;8.596;2023-04-30T12:45:11;101194.28;;;23.02;32.25
55070;BME280;40967;52.070;8.596;2023-04-30T12:47:41;101202.16;;;23.21;31.81
55070;BME280;40967;52.070;8.596;2023-04-30T12:50:10;101189.66;;;23.15;31.01
55070;BME280;40967;52.070;8.596;2023-04-30T12:52:39;101187.28;;;23.05;31.14
55070;BME280;40967;52.070;8.596;2023-04-30T12:55:18;101185.69;;;23.04;31.99
55070;BME280;40967;52.070;8.596;2023-04-30T13:03:14;101174.59;;;23.24;32.46
55070;BME280;40967;52.070;8.596;2023-04-30T13:05:40;101169.75;;;23.42;31.58
55070;BME280;40967;52.070;8.596;2023-04-30T13:08:06;101162.25;;;23.42;31.58
55070;BME280;40967;52.070;8.596;2023-04-30T13:10:33;101161.72;;;23.28;31.54
55070;BME280;40967;52.070;8.596;2023-04-30T13:12:58;101157.44;;;22.90;32.17
55070;BME280;40967;52.070;8.596;2023-04-30T13:15:24;101151.69;;;22.74;32.54
55070;BME280;40967;52.070;8.596;2023-04-30T13:17:49;101141.31;;;22.92;32.56
55070;BME280;40967;52.070;8.596;2023-04-30T13:20:16;101142.88;;;23.01;31.94
55070;BME280;40967;52.070;8.596;2023-04-30T13:22:44;101143.47;;;23.07;31.80
55070;BME280;40967;52.070;8.596;2023-04-30T13:25:10;101143.53;;;22.98;32.56